Time;durP1;ratioP1;P1;durP2;ratioP2;P2;SDS_P1;SDS_P2;PMS_P1;PMS_P2;Temp;Humidity;BMP_temperature;BMP_pressure;BME280_temperature;BME280_humidity;BME280_pressure;Samples;Min_cycle;Max_cycle;Signal;HPM_P1;HPM_P2
2022/04/07 00:01:51;;;;;;;8.48;6.35;;;;;;;-1.24;75.64;98417.66;5014832;28;20051;-70
2022/04/07 00:04:16;;;;;;;9.10;5.78;;;;;;;-1.27;76.66;98417.81;5014692;28;20045;-69
2022/04/07 00:06:41;;;;;;;7.80;4.82;;;;;;;-1.18;76.24;98425.25;5014848;28;20049;-69
2022/04/07 00:09:06;;;;;;;9.90;5.22;;;;;;;-1.17;76.90;98416.50;4996822;28;20044;-68
2022/04/07 00:11:31;;;;;;;11.38;5.68;;;;;;;-1.27;76.66;98423.03;5014810;28;20068;-70
2022/04/07 00:13:55;;;;;;;7.82;5.60;;;;;;;-1.20;76.83;98426.22;5023764;28;20063;-72
2022/04/07 00:16:20;;;;;;;9.30;4.68;;;;;;;-1.19;76.76;98426.16;5017169;28;20802;-71
2022/04/07 00:18:46;;;;;;;8.75;5.05;;;;;;;-1.21;76.57;98425.38;5015147;28;20148;-74
2022/04/07 00:21:12;;;;;;;6.18;4.32;;;;;;;-1.20;76.99;98421.84;5007754;28;20047;-73
2022/04/07 00:23:36;;;;;;;6.60;4.28;;;;;;;-1.14;76.22;98426.84;4999352;28;20049;-74
2022/04/07 00:26:01;;;;;;;9.00;5.25;;;;;;;-1.26;76.45;98434.34;5002112;28;20124;-78
2022/04/07 00:28:26;;;;;;;8.30;5.00;;;;;;;-1.24;76.87;98428.13;5010753;28;20071;-77
2022/04/07 00:30:51;;;;;;;7.13;4.80;;;;;;;-1.24;77.40;98424.69;4999257;28;20491;-75
2022/04/07 00:33:15;;;;;;;6.18;4.28;;;;;;;-1.15;75.90;98446.06;5016986;28;20128;-75
2022/04/07 00:35:40;;;;;;;8.95;5.43;;;;;;;-1.12;75.53;98424.13;5017105;28;20080;-68
2022/04/07 00:38:05;;;;;;;5.53;4.25;;;;;;;-1.16;75.67;98425.19;5014712;28;20510;-71
2022/04/07 00:40:30;;;;;;;11.70;5.38;;;;;;;-1.25;76.65;98416.00;4997348;28;20075;-69
2022/04/07 00:42:55;;;;;;;9.50;7.22;;;;;;;-1.32;77.28;98419.78;5016588;28;20080;-70
2022/04/07 00:45:22;;;;;;;7.25;4.30;;;;;;;-1.27;77.84;98417.81;5017138;28;20101;-68
2022/04/07 00:47:47;;;;;;;5.78;3.97;;;;;;;-1.20;77.15;98421.00;5008601;28;20090;-69
2022/04/07 00:50:14;;;;;;;7.45;4.88;;;;;;;-1.06;75.89;98420.41;5014473;28;20029;-69
2022/04/07 00:52:41;;;;;;;7.65;4.43;;;;;;;-1.04;74.99;98418.56;5017458;28;20454;-68
2022/04/07 00:55:06;;;;;;;6.15;3.80;;;;;;;-0.86;74.36;98420.34;4998742;28;20049;-69
2022/04/07 00:57:31;;;;;;;4.35;3.67;;;;;;;-0.80;74.17;98428.81;5007210;28;20045;-69
2022/04/07 00:59:57;;;;;;;7.10;4.68;;;;;;;-0.90;73.76;98421.41;5016852;28;20488;-68
2022/04/07 01:02:22;;;;;;;5.57;3.50;;;;;;;-1.04;74.27;98421.19;5015633;28;20474;-70
2022/04/07 01:04:47;;;;;;;7.80;4.03;;;;;;;-1.12;74.79;98411.91;4999519;28;20448;-71
2022/04/07 01:07:13;;;;;;;8.98;4.50;;;;;;;-1.08;75.77;98414.38;5015759;28;20044;-69
2022/04/07 01:09:37;;;;;;;5.97;3.90;;;;;;;-1.02;74.39;98409.75;5015784;28;20037;-69
2022/04/07 01:12:03;;;;;;;6.70;3.80;;;;;;;-1.03;75.06;98417.66;5019591;28;20044;-66
2022/04/07 01:14:28;;;;;;;5.63;4.07;;;;;;;-1.03;75.20;98409.81;5001159;28;20139;-68
2022/04/07 01:16:53;;;;;;;7.88;4.75;;;;;;;-1.15;76.56;98409.44;5005185;28;20128;-68
2022/04/07 01:19:18;;;;;;;5.68;3.40;;;;;;;-0.96;75.61;98412.09;5015466;28;20044;-68
2022/04/07 01:21:43;;;;;;;5.47;3.42;;;;;;;-0.98;75.02;98415.69;5004290;28;20036;-69
2022/04/07 01:24:12;;;;;;;3.05;2.60;;;;;;;-0.84;74.87;98414.16;5002123;28;20037;-67
2022/04/07 01:26:43;;;;;;;4.90;3.03;;;;;;;-0.82;74.27;98407.09;5011862;28;20502;-67
2022/04/07 01:29:11;;;;;;;4.78;3.30;;;;;;;-0.89;74.18;98412.63;5003571;28;20047;-67
2022/04/07 01:31:36;;;;;;;4.80;3.67;;;;;;;-1.02;75.01;98404.53;5019171;28;20041;-67
2022/04/07 01:34:03;;;;;;;3.65;3.22;;;;;;;-0.86;74.94;98415.13;5015187;28;20702;-67
2022/04/07 01:36:30;;;;;;;4.80;3.42;;;;;;;-0.93;74.77;98413.72;5014579;28;20051;-69
2022/04/07 01:38:57;;;;;;;4.60;2.85;;;;;;;-0.79;74.39;98398.25;5015477;28;20049;-66
2022/04/07 01:41:22;;;;;;;4.88;3.20;;;;;;;-0.75;74.41;98410.25;5015845;28;20090;-67
2022/04/07 01:43:49;;;;;;;4.35;2.88;;;;;;;-0.81;74.72;98411.41;5002236;28;20388;-67
2022/04/07 01:46:14;;;;;;;4.18;2.78;;;;;;;-0.74;74.76;98404.97;5014952;28;20462;-67
2022/04/07 01:48:42;;;;;;;5.22;2.70;;;;;;;-0.62;74.49;98411.41;5016196;28;20407;-73
2022/04/07 01:51:10;;;;;;;3.85;2.80;;;;;;;-0.64;74.79;98408.00;5016168;28;20044;-72
2022/04/07 01:53:35;;;;;;;4.30;3.10;;;;;;;-0.57;74.60;98405.97;5015807;28;20039;-71
2022/04/07 01:56:00;;;;;;;5.22;3.25;;;;;;;-0.62;74.46;98400.06;4998599;28;20047;-69
2022/04/07 01:58:25;;;;;;;7.40;4.15;;;;;;;-0.80;74.95;98397.41;4999229;28;20056;-68
2022/04/07 02:00:50;;;;;;;6.25;3.63;;;;;;;-0.90;75.66;98403.94;5004297;28;20407;-69
2022/04/07 02:03:15;;;;;;;6.72;4.05;;;;;;;-0.84;76.11;98406.31;5003947;28;20446;-69
2022/04/07 02:05:40;;;;;;;4.95;3.58;;;;;;;-0.81;76.01;98400.09;5001693;28;20051;-70
2022/04/07 02:08:05;;;;;;;3.80;2.90;;;;;;;-0.66;75.95;98398.50;5016749;28;20044;-72
2022/04/07 02:10:31;;;;;;;4.72;2.92;;;;;;;-0.73;75.37;98406.66;4998573;28;20044;-71
2022/04/07 02:12:57;;;;;;;5.32;3.30;;;;;;;-0.73;75.38;98403.19;4998203;28;20094;-69
2022/04/07 02:15:25;;;;;;;5.45;3.60;;;;;;;-0.64;75.25;98394.91;5032503;28;20380;-75
2022/04/07 02:17:50;;;;;;;4.03;3.10;;;;;;;-0.71;75.14;98392.66;5016761;28;20852;-71
2022/04/07 02:20:14;;;;;;;5.07;3.45;;;;;;;-0.83;76.51;98396.69;5016274;28;20443;-73
2022/04/07 02:22:39;;;;;;;4.50;3.63;;;;;;;-0.76;76.21;98395.47;5004777;28;20798;-69
2022/04/07 02:25:05;;;;;;;3.97;2.60;;;;;;;-0.71;76.39;98401.34;5010853;28;20075;-71
2022/04/07 02:27:40;;;;;;;3.92;3.13;;;;;;;-0.61;76.04;98391.31;4997982;28;20091;-73
2022/04/07 02:30:11;;;;;;;6.40;4.00;;;;;;;-0.65;75.82;98397.59;4986450;28;20126;-73
2022/04/07 02:32:36;;;;;;;6.13;3.63;;;;;;;-0.85;77.63;98406.38;5016758;28;20489;-73
2022/04/07 02:35:01;;;;;;;7.55;4.97;;;;;;;-0.71;77.17;98397.91;5015418;28;20569;-75
2022/04/07 02:37:27;;;;;;;6.25;4.63;;;;;;;-0.72;77.52;98404.91;5000432;28;20045;-76
2022/04/07 02:39:53;;;;;;;6.95;4.18;;;;;;;-0.61;76.93;98417.47;4998671;28;20098;-73
2022/04/07 02:42:18;;;;;;;3.08;2.30;;;;;;;-0.33;76.29;98401.31;4999196;28;20926;-71
2022/04/07 02:44:43;;;;;;;6.55;4.55;;;;;;;-0.42;75.92;98403.47;5016591;28;20515;-70
2022/04/07 02:47:08;;;;;;;6.97;4.75;;;;;;;-0.32;75.24;98410.88;5017065;28;20048;-72
2022/04/07 02:49:33;;;;;;;8.32;4.75;;;;;;;-0.23;75.06;98415.69;5017899;28;20124;-70
2022/04/07 02:51:57;;;;;;;6.80;2.78;;;;;;;-0.16;75.00;98407.47;5000591;28;20075;-76
2022/04/07 02:54:22;;;;;;;7.75;5.05;;;;;;;-0.40;75.41;98414.72;5018679;28;20083;-76
2022/04/07 02:56:47;;;;;;;5.20;3.25;;;;;;;-0.27;75.21;98414.13;5019204;28;20048;-75
2022/04/07 02:59:12;;;;;;;7.15;4.80;;;;;;;-0.48;75.65;98421.25;4991414;28;20048;-76
2022/04/07 03:01:36;;;;;;;4.70;3.42;;;;;;;-0.32;75.20;98411.72;5006274;28;20041;-70
2022/04/07 03:04:01;;;;;;;3.42;2.72;;;;;;;-0.28;75.39;98415.06;5026573;28;20049;-70
2022/04/07 03:06:26;;;;;;;7.63;4.63;;;;;;;-0.32;75.22;98418.72;4991213;28;20059;-68
2022/04/07 03:08:51;;;;;;;9.52;5.30;;;;;;;-0.32;75.37;98416.97;4988698;28;20036;-73
2022/04/07 03:11:16;;;;;;;9.07;5.22;;;;;;;-0.39;75.65;98399.84;5013348;28;20044;-71
2022/04/07 03:13:40;;;;;;;8.07;4.60;;;;;;;-0.43;76.04;98414.84;5010865;28;20469;-70
2022/04/07 03:16:08;;;;;;;8.13;4.50;;;;;;;-0.36;75.79;98410.19;4999544;28;20037;-73
2022/04/07 03:18:34;;;;;;;8.55;4.70;;;;;;;-0.37;76.23;98418.97;4994675;28;20044;-68
2022/04/07 03:20:59;;;;;;;8.73;4.57;;;;;;;-0.22;75.78;98412.13;5018768;28;20105;-66
2022/04/07 03:23:24;;;;;;;7.95;4.70;;;;;;;-0.32;76.55;98400.41;5023555;28;20399;-68
2022/04/07 03:25:49;;;;;;;14.07;6.13;;;;;;;-0.42;76.84;98395.59;5001423;28;20453;-69
2022/04/07 03:28:14;;;;;;;8.02;5.25;;;;;;;-0.33;76.99;98403.94;5012038;28;20110;-68
2022/04/07 03:30:39;;;;;;;7.68;4.93;;;;;;;-0.32;77.41;98405.63;5014191;28;20045;-70
2022/04/07 03:33:06;;;;;;;6.40;4.65;;;;;;;-0.06;76.72;98407.88;4999553;28;20049;-70
2022/04/07 03:35:30;;;;;;;9.85;6.25;;;;;;;-0.26;77.04;98405.38;5014994;28;20112;-70
2022/04/07 03:37:55;;;;;;;10.40;6.43;;;;;;;-0.20;76.67;98394.59;5014351;28;20051;-68
2022/04/07 03:40:20;;;;;;;9.55;6.07;;;;;;;-0.28;77.40;98381.00;4971248;28;20140;-64
2022/04/07 03:42:45;;;;;;;12.35;6.47;;;;;;;-0.28;78.00;98391.50;4996007;28;20502;-68
2022/04/07 03:45:09;;;;;;;9.85;5.32;;;;;;;-0.19;77.73;98391.91;4995902;28;20131;-64
2022/04/07 03:47:34;;;;;;;11.70;5.72;;;;;;;-0.10;77.76;98395.84;5015332;28;20411;-68
2022/04/07 03:50:00;;;;;;;8.85;4.93;;;;;;;0.00;77.36;98381.41;5022446;28;20047;-68
2022/04/07 03:52:25;;;;;;;7.90;5.20;;;;;;;-0.05;77.37;98378.13;5001017;28;20053;-68
2022/04/07 03:54:50;;;;;;;6.88;4.25;;;;;;;0.19;76.75;98374.31;5021120;28;20113;-69
2022/04/07 03:57:15;;;;;;;10.98;6.25;;;;;;;0.09;76.93;98393.19;5019304;28;20090;-69
2022/04/07 03:59:42;;;;;;;9.27;6.25;;;;;;;0.22;76.66;98376.78;4999191;28;20033;-68
2022/04/07 04:02:07;;;;;;;11.35;6.20;;;;;;;0.22;76.86;98379.41;4997191;28;20098;-69
2022/04/07 04:04:32;;;;;;;11.25;5.30;;;;;;;0.29;76.56;98383.41;4997002;28;20550;-68
2022/04/07 04:06:58;;;;;;;13.63;5.95;;;;;;;0.55;75.75;98382.09;5015330;28;20570;-70
2022/04/07 04:09:22;;;;;;;7.82;4.55;;;;;;;0.60;75.57;98381.84;4997007;28;20082;-69
2022/04/07 04:11:47;;;;;;;7.82;4.50;;;;;;;0.70;75.16;98383.06;5015371;28;20040;-69
2022/04/07 04:14:12;;;;;;;10.80;6.10;;;;;;;0.78;74.44;98380.91;5014690;28;20069;-68
2022/04/07 04:16:37;;;;;;;11.48;6.82;;;;;;;0.73;74.32;98383.75;5017070;28;20045;-68
2022/04/07 04:19:01;;;;;;;9.77;5.97;;;;;;;0.68;74.56;98384.91;5019835;28;20136;-69
2022/04/07 04:21:26;;;;;;;6.18;4.50;;;;;;;0.91;74.51;98381.09;5018757;28;20410;-70
2022/04/07 04:23:51;;;;;;;7.03;4.25;;;;;;;1.08;73.89;98375.81;5018315;28;20041;-69
2022/04/07 04:26:15;;;;;;;6.63;3.92;;;;;;;1.11;73.27;98377.44;5018625;28;20047;-69
2022/04/07 04:28:40;;;;;;;9.93;5.60;;;;;;;0.92;73.37;98381.00;5019011;28;20045;-69
2022/04/07 04:31:05;;;;;;;10.05;5.55;;;;;;;0.94;73.50;98375.69;5018690;28;20459;-68
2022/04/07 04:33:30;;;;;;;8.80;6.15;;;;;;;1.01;73.50;98369.22;4967461;28;20118;-68
2022/04/07 04:35:55;;;;;;;10.15;6.15;;;;;;;1.17;72.70;98377.09;5018138;28;20043;-67
2022/04/07 04:38:20;;;;;;;7.63;5.25;;;;;;;1.20;71.03;98382.19;5018423;28;20045;-67
2022/04/07 04:40:44;;;;;;;6.80;3.80;;;;;;;1.36;71.40;98375.16;5016745;28;20403;-67
2022/04/07 04:43:09;;;;;;;7.43;5.03;;;;;;;1.51;69.66;98381.34;5018008;28;20410;-68
2022/04/07 04:45:34;;;;;;;7.82;5.22;;;;;;;1.59;69.27;98373.88;5000133;28;20041;-68
2022/04/07 04:48:00;;;;;;;9.02;4.75;;;;;;;1.73;69.05;98376.59;5019266;28;20384;-68
2022/04/07 04:50:26;;;;;;;8.95;5.38;;;;;;;1.37;69.79;98380.31;5000235;28;20106;-67
2022/04/07 04:52:50;;;;;;;7.88;4.80;;;;;;;1.51;69.84;98382.19;5018017;28;20114;-69
2022/04/07 04:55:16;;;;;;;6.25;4.60;;;;;;;1.39;70.53;98385.50;5018478;28;20049;-70
2022/04/07 04:57:40;;;;;;;5.72;4.03;;;;;;;1.40;70.17;98388.03;5018163;28;20105;-70
2022/04/07 05:00:06;;;;;;;10.38;7.15;;;;;;;1.14;71.19;98385.97;5000586;28;20040;-72
2022/04/07 05:02:31;;;;;;;10.95;5.63;;;;;;;1.14;71.74;98382.50;5000701;28;20036;-70
2022/04/07 05:04:56;;;;;;;8.20;5.20;;;;;;;1.17;72.24;98377.94;5005063;28;20273;-70
2022/04/07 05:07:20;;;;;;;12.00;6.60;;;;;;;0.93;73.80;98393.19;5016587;28;20132;-70
2022/04/07 05:09:45;;;;;;;9.75;5.75;;;;;;;0.91;79.57;98391.59;4983304;28;20037;-70
2022/04/07 05:12:10;;;;;;;7.63;4.95;;;;;;;1.00;79.77;98388.50;5017500;28;20048;-69
2022/04/07 05:14:34;;;;;;;10.50;6.13;;;;;;;1.10;78.82;98379.22;5017550;28;20040;-68
2022/04/07 05:16:59;;;;;;;9.80;6.72;;;;;;;0.96;79.92;98389.56;4999272;28;20033;-69
2022/04/07 05:19:24;;;;;;;7.35;4.97;;;;;;;1.22;78.67;98382.94;5017748;28;20052;-71
2022/04/07 05:21:50;;;;;;;10.63;5.40;;;;;;;0.99;79.76;98376.31;4999492;28;20036;-69
2022/04/07 05:24:17;;;;;;;13.90;7.00;;;;;;;0.87;79.55;98380.41;4999887;28;20045;-70
2022/04/07 05:26:42;;;;;;;8.05;4.88;;;;;;;1.21;76.61;98371.59;5018055;28;20045;-70
2022/04/07 05:29:07;;;;;;;13.52;6.43;;;;;;;1.05;77.00;98368.09;4998796;28;20071;-70
2022/04/07 05:31:32;;;;;;;6.50;4.28;;;;;;;1.19;76.55;98364.72;4999623;28;20495;-70
2022/04/07 05:33:56;;;;;;;9.35;5.13;;;;;;;1.09;77.53;98365.22;5017264;28;20063;-70
2022/04/07 05:36:21;;;;;;;6.35;4.00;;;;;;;1.13;77.86;98368.53;5017744;28;20434;-70
2022/04/07 05:38:46;;;;;;;8.98;4.85;;;;;;;1.33;76.36;98349.94;5015645;28;20048;-70
2022/04/07 05:41:11;;;;;;;8.30;4.75;;;;;;;1.49;76.61;98352.53;5017097;28;20037;-69
2022/04/07 05:43:35;;;;;;;9.02;5.32;;;;;;;1.48;75.99;98336.88;5016806;28;20048;-70
2022/04/07 05:46:01;;;;;;;10.02;5.00;;;;;;;1.75;75.16;98322.19;5017197;28;20602;-70
2022/04/07 05:48:26;;;;;;;6.43;4.63;;;;;;;1.74;74.25;98339.75;4999057;28;20100;-70
2022/04/07 05:50:50;;;;;;;7.00;5.05;;;;;;;1.77;74.23;98336.94;5016848;28;20053;-70
2022/04/07 05:53:16;;;;;;;5.50;3.60;;;;;;;1.87;74.27;98331.16;5016796;28;20037;-70
2022/04/07 05:55:40;;;;;;;8.20;5.30;;;;;;;1.92;73.68;98324.69;5016861;28;20090;-69
2022/04/07 05:58:07;;;;;;;5.72;3.88;;;;;;;1.98;72.89;98313.84;5016457;28;20060;-70
2022/04/07 06:00:32;;;;;;;6.50;4.00;;;;;;;1.94;72.82;98307.06;5015170;28;20041;-70
2022/04/07 06:02:57;;;;;;;4.38;2.90;;;;;;;1.88;73.36;98303.94;5015333;28;20500;-70
2022/04/07 06:05:22;;;;;;;5.72;3.85;;;;;;;1.97;73.43;98292.91;4998642;28;20477;-70
2022/04/07 06:07:47;;;;;;;6.05;4.13;;;;;;;1.88;73.58;98291.66;4998433;28;20337;-71
2022/04/07 06:10:12;;;;;;;7.13;4.93;;;;;;;1.98;73.67;98286.72;4998670;28;20033;-70
2022/04/07 06:12:42;;;;;;;5.05;3.72;;;;;;;2.03;73.57;98289.94;4998394;28;20044;-70
2022/04/07 06:15:07;;;;;;;8.20;4.70;;;;;;;1.94;73.53;98299.19;5016858;28;20545;-70
2022/04/07 06:17:38;;;;;;;7.78;5.20;;;;;;;1.82;74.02;98292.84;4999743;28;20045;-71
2022/04/07 06:20:06;;;;;;;6.68;4.78;;;;;;;1.73;74.18;98290.75;4999938;28;20040;-71
2022/04/07 06:22:30;;;;;;;6.32;4.07;;;;;;;1.80;74.41;98289.50;5018485;28;20452;-70
2022/04/07 06:24:55;;;;;;;4.82;3.42;;;;;;;2.01;73.91;98297.06;4999318;28;20143;-70
2022/04/07 06:27:20;;;;;;;9.93;5.47;;;;;;;1.74;74.27;98287.19;4982040;28;20037;-70
2022/04/07 06:29:44;;;;;;;5.97;3.90;;;;;;;1.82;73.92;98281.50;4998269;28;20048;-70
2022/04/07 06:32:09;;;;;;;6.60;4.57;;;;;;;1.78;74.02;98290.50;5016379;28;20040;-71
2022/04/07 06:34:34;;;;;;;9.68;4.68;;;;;;;1.52;76.90;98299.00;4981226;28;20505;-69
2022/04/07 06:37:00;;;;;;;8.25;5.20;;;;;;;1.48;77.84;98293.06;5015855;28;20411;-69
2022/04/07 06:39:25;;;;;;;7.50;4.68;;;;;;;1.59;77.55;98277.56;4997870;28;20061;-68
2022/04/07 06:41:49;;;;;;;7.63;4.25;;;;;;;1.62;78.86;98280.03;5015876;28;20076;-69
2022/04/07 06:44:14;;;;;;;6.90;4.57;;;;;;;1.71;77.26;98282.09;5015918;28;20457;-70
2022/04/07 06:46:39;;;;;;;6.05;4.88;;;;;;;1.51;77.69;98278.94;4998166;28;20113;-70
2022/04/07 06:49:04;;;;;;;8.52;5.22;;;;;;;1.59;76.25;98281.97;4999011;28;20119;-70
2022/04/07 06:51:29;;;;;;;7.03;4.53;;;;;;;1.76;75.27;98272.19;5000612;28;20411;-69
2022/04/07 06:53:53;;;;;;;7.10;5.13;;;;;;;1.86;74.43;98276.91;5002222;28;20045;-70
2022/04/07 06:56:18;;;;;;;4.32;3.03;;;;;;;1.94;74.46;98261.53;5001160;28;20049;-71
2022/04/07 06:58:43;;;;;;;9.75;6.72;;;;;;;1.76;73.98;98266.09;5018522;28;20044;-71
2022/04/07 07:01:08;;;;;;;9.88;6.05;;;;;;;1.64;74.57;98274.69;5016063;28;20427;-70
2022/04/07 07:03:33;;;;;;;11.60;6.85;;;;;;;1.72;75.04;98262.78;5015714;28;20047;-70
2022/04/07 07:05:58;;;;;;;8.70;5.85;;;;;;;1.87;74.80;98274.19;5016555;28;20131;-71
2022/04/07 07:08:23;;;;;;;10.57;4.40;;;;;;;2.00;74.45;98272.56;4998153;28;20124;-71
2022/04/07 07:10:49;;;;;;;9.05;5.93;;;;;;;2.07;73.63;98266.00;5015574;28;20402;-70
2022/04/07 07:13:16;;;;;;;10.40;6.25;;;;;;;1.93;73.81;98268.56;4997558;28;20041;-71
2022/04/07 07:15:41;;;;;;;5.60;4.55;;;;;;;2.06;74.40;98269.56;5015466;28;20565;-71
2022/04/07 07:18:06;;;;;;;8.98;5.80;;;;;;;2.14;74.10;98258.59;5015469;28;20411;-72
2022/04/07 07:20:31;;;;;;;7.90;5.00;;;;;;;2.05;74.09;98259.13;5015324;28;20095;-71
2022/04/07 07:22:56;;;;;;;12.10;7.65;;;;;;;1.67;75.46;98253.50;5015886;28;20210;-72
2022/04/07 07:25:21;;;;;;;11.13;5.15;;;;;;;1.99;75.19;98256.88;5015274;28;20079;-71
2022/04/07 07:27:47;;;;;;;10.02;5.60;;;;;;;2.10;74.10;98246.56;5015108;28;20044;-72
2022/04/07 07:30:15;;;;;;;10.75;6.53;;;;;;;1.96;74.93;98259.66;4997408;28;20403;-71
2022/04/07 07:32:41;;;;;;;8.20;5.90;;;;;;;1.81;75.33;98246.50;5015091;28;20122;-70
2022/04/07 07:35:07;;;;;;;10.90;7.57;;;;;;;1.55;76.83;98249.78;5015204;28;20041;-70
2022/04/07 07:37:32;;;;;;;10.90;5.57;;;;;;;1.90;77.27;98242.50;5014996;28;20044;-70
2022/04/07 07:39:57;;;;;;;8.43;6.28;;;;;;;2.02;76.30;98251.44;5014814;28;20103;-71
2022/04/07 07:42:22;;;;;;;5.63;3.95;;;;;;;2.33;75.59;98248.66;5015212;28;20055;-71
2022/04/07 07:44:47;;;;;;;8.63;6.63;;;;;;;2.03;75.34;98253.13;4996958;28;20044;-70
2022/04/07 07:47:12;;;;;;;7.38;4.07;;;;;;;2.26;75.34;98251.78;5014951;28;20048;-70
2022/04/07 07:49:37;;;;;;;8.95;5.38;;;;;;;2.19;75.32;98238.13;5015289;28;20127;-70
2022/04/07 07:52:02;;;;;;;7.00;4.70;;;;;;;2.10;75.51;98238.69;5017597;28;20037;-71
2022/04/07 07:54:27;;;;;;;6.43;3.72;;;;;;;2.23;75.51;98226.50;5019977;28;20052;-70
2022/04/07 07:56:52;;;;;;;3.20;2.95;;;;;;;2.49;75.06;98236.25;5019794;28;20132;-71
2022/04/07 07:59:20;;;;;;;11.13;4.15;;;;;;;2.45;74.77;98233.94;5001269;28;20106;-71
2022/04/07 08:01:44;;;;;;;8.80;6.72;;;;;;;1.95;75.76;98244.84;5019546;28;20453;-71
2022/04/07 08:04:09;;;;;;;6.80;3.78;;;;;;;2.22;76.00;98234.47;5017850;28;20472;-70
2022/04/07 08:06:34;;;;;;;9.18;5.90;;;;;;;2.09;75.72;98232.56;5017556;28;20560;-71
2022/04/07 08:08:59;;;;;;;3.42;3.08;;;;;;;2.22;75.99;98227.44;5001378;28;20360;-71
2022/04/07 08:11:24;;;;;;;7.72;5.10;;;;;;;2.21;75.92;98230.16;5019472;28;20041;-71
2022/04/07 08:13:49;;;;;;;6.20;4.78;;;;;;;2.22;76.03;98223.97;5019020;28;20060;-71
2022/04/07 08:16:14;;;;;;;9.55;6.50;;;;;;;2.10;76.66;98220.28;5018886;28;20466;-72
2022/04/07 08:18:38;;;;;;;10.07;6.35;;;;;;;1.94;78.26;98228.22;5000584;28;20037;-71
2022/04/07 08:21:03;;;;;;;7.13;5.32;;;;;;;2.10;77.93;98220.28;5018956;28;20048;-72
2022/04/07 08:23:28;;;;;;;8.85;5.55;;;;;;;2.19;77.83;98214.47;5019355;28;20045;-70
2022/04/07 08:25:53;;;;;;;15.20;7.43;;;;;;;1.93;78.36;98208.13;5018615;28;20086;-69
2022/04/07 08:28:17;;;;;;;8.43;5.53;;;;;;;2.10;78.22;98207.97;5034098;28;20044;-70
2022/04/07 08:30:42;;;;;;;12.73;8.05;;;;;;;2.07;78.47;98199.44;5018647;28;20045;-70
2022/04/07 08:33:07;;;;;;;10.68;6.50;;;;;;;2.15;78.56;98205.06;5018585;28;20056;-70
2022/04/07 08:35:31;;;;;;;7.82;6.15;;;;;;;2.42;77.88;98207.81;5019851;28;20040;-70
2022/04/07 08:37:56;;;;;;;8.52;5.88;;;;;;;2.55;76.63;98199.06;5019076;28;20053;-70
2022/04/07 08:40:21;;;;;;;9.65;7.05;;;;;;;2.46;76.74;98197.03;5004655;28;20572;-72
2022/04/07 08:42:46;;;;;;;8.13;5.68;;;;;;;2.67;76.50;98180.84;5019373;28;20063;-72
2022/04/07 08:45:11;;;;;;;9.68;7.00;;;;;;;2.34;77.63;98192.50;5022280;28;20498;-70
2022/04/07 08:47:37;;;;;;;11.82;7.43;;;;;;;2.34;78.02;98183.78;5019489;28;20133;-71
2022/04/07 08:50:04;;;;;;;10.38;6.72;;;;;;;2.47;78.48;98179.44;5017340;28;20033;-70
2022/04/07 08:52:29;;;;;;;9.55;6.32;;;;;;;2.49;78.70;98183.66;5018406;28;20048;-71
2022/04/07 08:54:54;;;;;;;11.88;6.72;;;;;;;2.63;78.46;98163.53;4984717;28;20103;-70
2022/04/07 08:57:18;;;;;;;9.82;6.32;;;;;;;2.83;78.57;98161.31;5001009;28;20052;-72
2022/04/07 08:59:43;;;;;;;9.32;6.88;;;;;;;3.01;76.96;98156.69;5020536;28;20040;-72
2022/04/07 09:02:09;;;;;;;17.83;10.52;;;;;;;2.65;77.84;98159.03;5028513;28;20052;-73
2022/04/07 09:04:38;;;;;;;15.90;10.25;;;;;;;2.70;78.48;98159.59;5020758;28;20090;-72
2022/04/07 09:07:04;;;;;;;13.00;8.88;;;;;;;2.76;78.16;98160.03;5019070;28;20590;-72
2022/04/07 09:09:33;;;;;;;13.00;7.40;;;;;;;2.63;78.75;98160.91;5019716;28;20491;-70
2022/04/07 09:11:59;;;;;;;13.18;7.20;;;;;;;2.68;78.93;98158.84;5018315;28;20032;-70
2022/04/07 09:14:24;;;;;;;16.48;8.13;;;;;;;2.69;79.00;98171.06;5018269;28;20767;-71
2022/04/07 09:16:54;;;;;;;8.82;6.55;;;;;;;2.99;77.54;98163.00;5000002;28;20514;-70
2022/04/07 09:19:23;;;;;;;16.23;11.20;;;;;;;2.59;78.60;98169.94;5016471;28;20097;-70
2022/04/07 09:22:12;;;;;;;9.88;5.60;;;;;;;2.71;78.92;98164.72;4983435;28;20510;-70
2022/04/07 09:24:39;;;;;;;10.15;5.97;;;;;;;2.77;78.37;98155.63;5017666;28;20472;-70
2022/04/07 09:27:08;;;;;;;13.45;8.98;;;;;;;2.74;78.79;98155.81;4999592;28;20539;-71
2022/04/07 09:29:40;;;;;;;14.13;8.48;;;;;;;2.82;77.91;98161.44;5017996;28;20045;-72
2022/04/07 09:32:25;;;;;;;15.63;9.38;;;;;;;2.86;78.37;98149.78;5018002;28;20048;-72
2022/04/07 09:34:55;;;;;;;18.15;8.45;;;;;;;2.89;78.87;98149.56;4999763;28;20044;-71
2022/04/07 09:37:22;;;;;;;9.13;6.68;;;;;;;3.12;78.00;98156.00;4983215;28;20045;-71
2022/04/07 09:39:49;;;;;;;18.30;10.60;;;;;;;2.98;77.61;98133.19;5034297;28;20076;-71
2022/04/07 09:42:25;;;;;;;18.42;10.85;;;;;;;3.16;77.64;98133.78;5001096;28;20093;-69
2022/04/07 09:44:52;;;;;;;16.08;10.00;;;;;;;3.13;77.65;98131.34;5017122;28;20604;-69
2022/04/07 09:47:18;;;;;;;18.17;11.07;;;;;;;3.13;77.19;98145.38;4985148;28;20072;-69
2022/04/07 09:49:42;;;;;;;11.43;7.00;;;;;;;3.42;77.63;98132.06;4999655;28;20490;-70
2022/04/07 09:52:10;;;;;;;18.58;10.48;;;;;;;3.36;77.32;98141.22;4999332;28;20830;-70
2022/04/07 09:54:38;;;;;;;12.40;7.43;;;;;;;3.53;76.59;98132.19;5017212;28;20487;-70
2022/04/07 09:57:04;;;;;;;16.90;10.32;;;;;;;3.53;76.62;98129.53;5016852;28;20079;-70
2022/04/07 09:59:30;;;;;;;13.75;9.45;;;;;;;3.54;76.68;98105.72;4999439;28;20047;-71
2022/04/07 10:01:56;;;;;;;17.85;11.00;;;;;;;3.63;76.46;98117.44;5018075;28;20049;-71
2022/04/07 10:04:22;;;;;;;8.57;5.40;;;;;;;3.82;76.18;98122.31;5031010;28;20441;-70
2022/04/07 10:06:47;;;;;;;10.38;7.03;;;;;;;3.89;75.93;98120.94;5015221;28;20037;-73
2022/04/07 10:09:13;;;;;;;11.43;6.78;;;;;;;3.95;75.52;98121.34;5034002;28;20070;-71
2022/04/07 10:11:39;;;;;;;17.63;9.35;;;;;;;3.91;75.03;98114.63;5017651;28;20112;-71
2022/04/07 10:14:04;;;;;;;15.90;9.88;;;;;;;3.68;76.31;98117.97;4998742;28;20041;-69
2022/04/07 10:16:29;;;;;;;18.65;10.43;;;;;;;3.77;76.03;98105.97;4998806;28;20041;-70
2022/04/07 10:18:58;;;;;;;18.80;11.35;;;;;;;3.80;76.35;98090.78;4998700;28;20059;-70
2022/04/07 10:21:57;;;;;;;16.10;10.82;;;;;;;3.90;76.12;98093.63;4998712;28;20413;-70
2022/04/07 10:24:47;;;;;;;15.82;11.93;;;;;;;3.79;76.45;98091.75;5016439;28;20047;-72
2022/04/07 10:27:14;;;;;;;15.70;8.98;;;;;;;3.98;76.95;98102.69;5016330;28;20045;-70
2022/04/07 10:29:40;;;;;;;12.93;7.00;;;;;;;4.19;76.34;98092.44;5014992;28;20045;-70
2022/04/07 10:32:10;;;;;;;17.05;10.90;;;;;;;4.29;76.02;98095.25;5032217;28;20044;-71
2022/04/07 10:34:36;;;;;;;15.10;10.82;;;;;;;4.43;75.14;98099.56;5016433;28;20517;-70
2022/04/07 10:37:08;;;;;;;16.58;11.25;;;;;;;4.40;75.17;98105.94;5016503;28;20459;-70
2022/04/07 10:39:32;;;;;;;21.20;12.57;;;;;;;4.48;75.15;98108.84;5020657;28;20048;-70
2022/04/07 10:41:57;;;;;;;18.70;10.85;;;;;;;4.64;74.63;98100.66;5020532;28;20045;-70
2022/04/07 10:44:25;;;;;;;17.83;11.70;;;;;;;4.65;74.74;98099.72;5020573;28;20100;-73
2022/04/07 10:47:02;;;;;;;21.58;9.98;;;;;;;4.84;73.87;98094.81;5016650;28;20040;-74
2022/04/07 10:49:29;;;;;;;20.65;12.88;;;;;;;4.75;73.93;98096.28;5017177;28;20114;-74
2022/04/07 10:51:55;;;;;;;20.63;13.23;;;;;;;4.72;73.61;98093.91;4999049;28;20068;-73
2022/04/07 10:54:24;;;;;;;20.85;11.75;;;;;;;4.82;74.04;98083.50;5015757;28;20044;-71
2022/04/07 10:56:51;;;;;;;17.42;12.25;;;;;;;4.82;74.21;98088.78;4982547;28;20052;-71
2022/04/07 10:59:25;;;;;;;24.92;14.40;;;;;;;4.89;73.93;98084.75;5000067;28;20044;-73
2022/04/07 11:02:11;;;;;;;19.15;12.07;;;;;;;4.95;74.05;98084.31;5009289;28;20041;-71
2022/04/07 11:04:41;;;;;;;20.65;11.98;;;;;;;4.88;74.77;98074.28;4984237;28;20144;-73
2022/04/07 11:07:15;;;;;;;18.38;11.77;;;;;;;4.97;73.91;98071.81;5017218;28;20048;-71
2022/04/07 11:09:46;;;;;;;18.43;11.30;;;;;;;5.20;73.59;98078.03;5016263;28;20128;-72
2022/04/07 11:12:31;;;;;;;18.52;12.52;;;;;;;5.09;73.39;98062.13;5016139;28;20052;-71
2022/04/07 11:15:02;;;;;;;23.38;11.82;;;;;;;5.07;74.05;98061.44;5015997;28;20037;-72
2022/04/07 11:17:51;;;;;;;11.02;7.45;;;;;;;5.29;73.37;98055.38;5014852;28;20503;-73
2022/04/07 11:20:18;;;;;;;23.08;13.30;;;;;;;5.15;73.75;98035.28;4998132;28;20048;-74
2022/04/07 11:23:04;;;;;;;14.27;8.50;;;;;;;5.35;73.77;98039.91;4997938;28;20117;-72
2022/04/07 11:25:40;;;;;;;21.80;12.75;;;;;;;5.30;74.15;98050.00;5012390;28;20719;-73
2022/04/07 11:28:18;;;;;;;19.60;12.73;;;;;;;5.19;74.25;98043.81;4989942;28;20504;-67
2022/04/07 11:30:43;;;;;;;18.70;12.27;;;;;;;5.38;73.80;98042.31;5015152;28;20036;-71